NCAR-RAP Real-Time Weather Data

Output produced by METARs form (20 February 2019  17:06 UTC)
found at http://weather.rap.ucar.edu/surface/
 
RJNT 201200Z 23004KT 8000 -SHRA FEW005 SCT010 BKN020 06/05 Q1020
RJNT 201100Z 27008KT 240V310 8000 -SHRA FEW005 SCT015 BKN025 07/05 Q1019
RJNT 201000Z 25006KT 220V280 8000 -SHRA FEW005 SCT015 BKN025 07/06 Q1018
RJNT 200900Z 28006KT 260V330 6000 -SHRA FEW005 BKN015 BKN035 08/06 Q1018
RJNT 200800Z 27005KT 9999 -SHRA FEW005 SCT015 BKN035 08/06 Q1017
RJNT 200700Z 28008KT 9999 VCSH FEW005 SCT020 BKN040 09/06 Q1016
RJNT 200600Z 26009KT 9999 -SHRA FEW010 SCT025 BKN045 09/07 Q1016
RJNT 200500Z 26009KT 9999 -SHRA FEW005 SCT010 BKN050 09/07 Q1016
RJNT 200400Z 27008KT 9999 -SHRA FEW005 SCT030 BKN050 09/08 Q1016
RJNT 200300Z 27008KT 230V290 9999 -SHRA FEW005 SCT010 BKN030 10/08 Q1016
RJNT 200200Z 26007KT 9999 -SHRA FEW005 SCT010 BKN025 10/09 Q1016
RJNT 200136Z 26006KT 4000 -SHRA BR FEW005 SCT010 BKN020 10/09 Q1017 RMK 2ST005 4CU010 7CU020 A3003
RJNT 200100Z 22005KT 9999 -SHRA FEW005 SCT015 BKN040 10/09 Q1017
RJNT 200000Z 21003KT 130V260 9999 -SHRA FEW005 SCT020 BKN050 09/08 Q1016
RJNT 192300Z 16003KT 110V190 9999 -SHRA FEW005 BKN020 BKN050 08/07 Q1016
RJNT 192200Z 15003KT 100V190 9999 VCSH FEW005 SCT025 BKN060 08/06 Q1015
RJNT 192110Z 18003KT 140V220 9999 -SHRA FEW010 SCT020 BKN050 08/07 Q1015 RMK 1CU010 4CU020 6SC050 A2997
RJNT 191200Z 00000KT 9000 -SHRA FEW005 SCT015 BKN050 10/09 Q1011
RJNT 191100Z 30004KT 250V330 9999 -SHRA FEW005 SCT020 BKN050 11/08 Q1010
RJNT 191000Z 18017G27KT 130V210 9999 -RA FEW005 SCT040 BKN070 14/06 Q1008
RJNT 190900Z 17015G29KT 130V220 9999 -RA FEW003 SCT040 BKN070 13/06 Q1008
RJNT 190800Z 16013G25KT 090V220 9999 -RA FEW002 SCT040 BKN070 12/06 Q1010
RJNT 190700Z 15008KT 100V200 9000 -RA FEW003 BKN040 OVC070 10/06 Q1012
RJNT 190600Z 17012G24KT 110V220 9999 -RA FEW003 SCT040 OVC070 12/04 Q1014
RJNT 190500Z 18014G24KT 140V200 9999 -RA FEW005 SCT040 OVC080 10/04 Q1015
RJNT 190400Z 17013G25KT 110V210 9999 -RA FEW008 SCT040 OVC090 10/03 Q1017
RJNT 190347Z 17015G26KT 130V210 9999 -RA FEW008 SCT040 OVC090 10/03 Q1017 RMK 1ST008 3SC040 8AS090 A3004
RJNT 190300Z 17010KT 120V210 9999 -RA FEW030 SCT080 OVC090 10/03 Q1018
RJNT 190200Z 18011KT 150V210 9999 -RA FEW060 SCT080 OVC100 11/03 Q1020
RJNT 190100Z 18011KT 140V210 9999 -RA FEW070 SCT080 OVC100 12/01 Q1020
RJNT 190000Z 16004KT 080V240 9999 -RA FEW070 SCT080 OVC100 11/M02 Q1022
RJNT 182300Z VRB01KT 9999 FEW080 SCT090 OVC100 08/M00 Q1023
RJNT 182200Z 02003KT 270V070 9999 FEW090 SCT100 OVC110 04/01 Q1024
RJNT 182110Z 27004KT 250V360 9999 VCSH FEW080 SCT090 OVC100 04/01 Q1024 RMK 1AC080 3AC090 8AS100 A3026
RJNT 181200Z 20004KT 9999 FEW040 BKN/// 05/01 Q1026
RJNT 181100Z 18003KT 150V210 9999 FEW040 BKN/// 05/01 Q1026
RJNT 181000Z 20005KT 9999 FEW040 BKN/// 06/02 Q1026
RJNT 180900Z 04003KT 9999 FEW040 SCT/// 09/01 Q1025
RJNT 180800Z 01006KT 9999 FEW040 BKN/// 10/M00 Q1024
RJNT 180700Z 04006KT 360V090 9999 FEW040 SCT/// 11/M01 Q1024
RJNT 180600Z VRB03KT 9999 FEW050 12/M02 Q1024